Duck Lake, Canada
Current Conditions -  °F | °C
As of 5:00 PM on Tuesday 27 Jan 2015 (Local Time) from CYPA Reporting Station
Overcast Overcast  
Wind Chill: 18°   Ceiling: 1100
Heat Index: 28°   Visibility: 15mi
Dew Point: 27°   Wind: 12mph
Humidity: 93%   Direction: 70°ENE
Pressure: 29.92"   Gusts: 17mph
Location:  52.8°N, 106.22°W
Report Text: CYPA 272300Z 07010G15KT 15SM BKN011 OVC045 M02/M03 A2992 RMK SC6SC2 SLP158
Loading
Personal Weather Stations






























Interactive Weather Map New forecast layout! Learn more

10-Day Weather Forecast

Advertisements
Track Severe Weather on mobile